Terminal Aerodrome Forecast
Issued by NWS

Home | Current Version | Previous Version | Text Only | Print | Product List | Glossary Off
Versions: 1 2 3 4 5 6 7 8 9 10 11 12 13 14 15 16 17 18 19 20

000
FTUS43 KUNR 022000 AAA
TAFGCC
TAF AMD
KGCC 022002Z 0220/0318 20007KT P6SM SCT120 BKN200
     FM030000 36011KT P6SM OVC060
     FM030400 36015KT 3SM -SN BR OVC020
     FM030600 36020G30KT 3/4SM -SN BLSN OVC006
     FM031200 33017G27KT 2SM -SN BLSN OVC010=

USA.gov is the U.S. government's official web portal to all federal, state and local government web resources and services.